Time,TemperatureF,DewpointF,PressureIn,WindDirection,WindDirectionDegrees,WindSpeedMPH,WindSpeedGustMPH,Humidity,HourlyPrecipIn,Conditions,Clouds,dailyrainin,SoftwareType,DateUTC
2015-05-25 00:14:00,78.7,73.0,30.15,ESE,118,4.0,10.0,82,0.00,,,0.00,weatherlink.com 1.10,2015-05-25 04:14:00,
2015-05-25 00:29:00,78.4,73.0,30.15,ESE,106,2.0,5.0,83,0.00,,,0.00,weatherlink.com 1.10,2015-05-25 04:29:00,
2015-05-25 00:44:00,78.1,73.0,30.15,East,82,2.0,5.0,83,0.00,,,0.00,weatherlink.com 1.10,2015-05-25 04:44:00,
2015-05-25 00:59:00,77.8,73.0,30.14,ESE,107,1.0,6.0,84,0.00,,,0.00,weatherlink.com 1.10,2015-05-25 04:59:00,
2015-05-25 01:14:00,77.5,72.0,30.14,ESE,103,1.0,3.0,84,0.00,,,0.00,weatherlink.com 1.10,2015-05-25 05:14:00,
2015-05-25 01:29:00,77.2,72.0,30.14,ENE,74,1.0,5.0,85,0.00,,,0.00,weatherlink.com 1.10,2015-05-25 05:29:00,
2015-05-25 01:59:00,76.4,72.0,30.13,East,89,1.0,6.0,86,0.00,,,0.00,weatherlink.com 1.10,2015-05-25 05:59:00,
2015-05-25 02:14:00,76.0,72.0,30.13,East,89,1.0,5.0,86,0.00,,,0.00,weatherlink.com 1.10,2015-05-25 06:14:00,
2015-05-25 02:29:00,75.7,72.0,30.13,East,89,0.0,3.0,87,0.00,,,0.00,weatherlink.com 1.10,2015-05-25 06:29:00,
2015-05-25 02:44:00,75.2,71.0,30.12,East,89,1.0,5.0,87,0.00,,,0.00,weatherlink.com 1.10,2015-05-25 06:44:00,
2015-05-25 02:59:00,74.8,71.0,30.12,East,89,0.0,3.0,88,0.00,,,0.00,weatherlink.com 1.10,2015-05-25 06:59:00,
2015-05-25 03:14:00,74.5,71.0,30.12,East,89,0.0,1.0,88,0.00,,,0.00,weatherlink.com 1.10,2015-05-25 07:14:00,
2015-05-25 03:29:00,74.2,71.0,30.11,East,89,1.0,1.0,89,0.00,,,0.00,weatherlink.com 1.10,2015-05-25 07:29:00,
2015-05-25 03:44:00,73.9,71.0,30.11,East,89,2.0,3.0,89,0.00,,,0.00,weatherlink.com 1.10,2015-05-25 07:44:00,
2015-05-25 03:59:00,73.6,71.0,30.11,East,89,1.0,5.0,90,0.00,,,0.00,weatherlink.com 1.10,2015-05-25 07:59:00,
2015-05-25 04:14:00,73.4,70.0,30.10,ENE,76,1.0,4.0,90,0.00,,,0.00,weatherlink.com 1.10,2015-05-25 08:14:00,
2015-05-25 04:29:00,73.3,70.0,30.11,ENE,76,0.0,4.0,90,0.00,,,0.00,weatherlink.com 1.10,2015-05-25 08:29:00,
2015-05-25 04:44:00,73.2,70.0,30.11,ENE,76,0.0,1.0,90,0.00,,,0.00,weatherlink.com 1.10,2015-05-25 08:44:00,
2015-05-25 04:59:00,73.0,70.0,30.11,ENE,76,0.0,1.0,90,0.00,,,0.00,weatherlink.com 1.10,2015-05-25 08:59:00,
2015-05-25 05:14:00,72.7,70.0,30.11,ENE,76,0.0,0.0,90,0.00,,,0.00,weatherlink.com 1.10,2015-05-25 09:14:00,
2015-05-25 05:29:00,72.5,70.0,30.11,ENE,76,0.0,1.0,90,0.00,,,0.00,weatherlink.com 1.10,2015-05-25 09:29:00,
2015-05-25 05:44:00,72.3,70.0,30.11,ENE,76,1.0,2.0,91,0.00,,,0.00,weatherlink.com 1.10,2015-05-25 09:44:00,
2015-05-25 05:59:00,72.2,70.0,30.11,ENE,76,0.0,4.0,91,0.00,,,0.00,weatherlink.com 1.10,2015-05-25 09:59:00,
2015-05-25 06:14:00,72.0,69.0,30.12,ENE,76,1.0,3.0,91,0.00,,,0.00,weatherlink.com 1.10,2015-05-25 10:14:00,
2015-05-25 06:29:00,71.9,69.0,30.12,ENE,76,1.0,3.0,91,0.00,,,0.00,weatherlink.com 1.10,2015-05-25 10:29:00,
2015-05-25 06:44:00,71.8,69.0,30.13,ENE,76,1.0,4.0,91,0.00,,,0.00,weatherlink.com 1.10,2015-05-25 10:44:00,
2015-05-25 06:59:00,71.9,69.0,30.13,ENE,61,3.0,5.0,91,0.00,,,0.00,weatherlink.com 1.10,2015-05-25 10:59:00,
2015-05-25 07:14:00,72.4,70.0,30.13,ESE,104,3.0,7.0,91,0.00,,,0.00,weatherlink.com 1.10,2015-05-25 11:14:00,
2015-05-25 07:29:00,72.8,70.0,30.13,East,91,2.0,5.0,90,0.00,,,0.00,weatherlink.com 1.10,2015-05-25 11:29:00,
2015-05-25 07:44:00,73.8,70.0,30.14,East,89,2.0,7.0,89,0.00,,,0.00,weatherlink.com 1.10,2015-05-25 11:44:00,
2015-05-25 07:59:00,74.9,71.0,30.14,East,84,3.0,9.0,88,0.00,,,0.00,weatherlink.com 1.10,2015-05-25 11:59:00,
2015-05-25 08:14:00,76.0,72.0,30.14,ENE,75,4.0,8.0,87,0.00,,,0.00,weatherlink.com 1.10,2015-05-25 12:14:00,
2015-05-25 08:29:00,77.0,73.0,30.14,ENE,73,3.0,8.0,86,0.00,,,0.00,weatherlink.com 1.10,2015-05-25 12:29:00,
2015-05-25 08:44:00,78.2,73.0,30.14,ESE,113,5.0,9.0,84,0.00,,,0.00,weatherlink.com 1.10,2015-05-25 12:44:00,
2015-05-25 08:59:00,79.1,74.0,30.15,East,90,2.0,10.0,83,0.00,,,0.00,weatherlink.com 1.10,2015-05-25 12:59:00,
2015-05-25 09:15:00,80.6,74.0,30.15,East,80,3.0,11.0,81,0.00,,,0.00,weatherlink.com 1.10,2015-05-25 13:15:00,
2015-05-25 09:30:00,81.5,74.0,30.15,East,95,7.0,11.0,77,0.00,,,0.00,weatherlink.com 1.10,2015-05-25 13:30:00,
2015-05-25 09:45:00,82.0,74.0,30.15,SSE,156,3.0,11.0,76,0.00,,,0.00,weatherlink.com 1.10,2015-05-25 13:45:00,
2015-05-25 10:00:00,83.1,74.0,30.15,ESE,104,7.0,14.0,73,0.00,,,0.00,weatherlink.com 1.10,2015-05-25 14:00:00,
2015-05-25 10:15:00,83.9,74.0,30.15,SE,124,4.0,13.0,71,0.00,,,0.00,weatherlink.com 1.10,2015-05-25 14:15:00,
2015-05-25 10:30:00,84.5,74.0,30.14,ESE,110,10.0,13.0,71,0.00,,,0.00,weatherlink.com 1.10,2015-05-25 14:30:00,
2015-05-25 10:45:00,85.3,74.0,30.14,ESE,106,5.0,14.0,69,0.00,,,0.00,weatherlink.com 1.10,2015-05-25 14:45:00,
2015-05-25 11:00:00,85.3,74.0,30.14,ESE,113,5.0,14.0,68,0.00,,,0.00,weatherlink.com 1.10,2015-05-25 15:00:00,
2015-05-25 11:15:00,86.4,74.0,30.14,ESE,117,9.0,12.0,66,0.00,,,0.00,weatherlink.com 1.10,2015-05-25 15:15:00,
2015-05-25 11:30:00,87.1,74.0,30.14,SE,130,5.0,11.0,65,0.00,,,0.00,weatherlink.com 1.10,2015-05-25 15:30:00,
2015-05-25 11:45:00,87.8,74.0,30.14,ESE,105,7.0,14.0,63,0.00,,,0.00,weatherlink.com 1.10,2015-05-25 15:45:00,
2015-05-25 12:00:00,87.8,73.0,30.14,ENE,78,8.0,12.0,62,0.00,,,0.00,weatherlink.com 1.10,2015-05-25 16:00:00,
2015-05-25 12:15:00,88.4,73.0,30.14,SE,139,3.0,13.0,61,0.00,,,0.00,weatherlink.com 1.10,2015-05-25 16:15:00,
2015-05-25 12:30:00,89.1,73.0,30.14,ESE,105,4.0,10.0,59,0.00,,,0.00,weatherlink.com 1.10,2015-05-25 16:30:00,
2015-05-25 12:45:00,89.0,73.0,30.13,SE,134,8.0,10.0,59,0.00,,,0.00,weatherlink.com 1.10,2015-05-25 16:45:00,
2015-05-25 13:00:00,89.1,73.0,30.13,ESE,103,3.0,12.0,59,0.00,,,0.00,weatherlink.com 1.10,2015-05-25 17:00:00,
2015-05-25 13:15:00,90.2,73.0,30.12,ESE,107,5.0,15.0,57,0.00,,,0.00,weatherlink.com 1.10,2015-05-25 17:15:00,
2015-05-25 13:30:00,89.7,71.0,30.12,East,86,6.0,10.0,55,0.00,,,0.00,weatherlink.com 1.10,2015-05-25 17:30:00,
2015-05-25 13:45:00,90.8,72.0,30.12,South,174,5.0,14.0,54,0.00,,,0.00,weatherlink.com 1.10,2015-05-25 17:45:00,
2015-05-25 14:00:00,91.8,72.0,30.11,ESE,119,3.0,10.0,53,0.00,,,0.00,weatherlink.com 1.10,2015-05-25 18:00:00,
2015-05-25 14:15:00,91.5,72.0,30.11,East,87,13.0,13.0,53,0.00,,,0.00,weatherlink.com 1.10,2015-05-25 18:15:00,